sensor_id;sensor_type;location;lat;lon;timestamp;pressure;altitude;pressure_sealevel;temperature;humidity
70971;BME280;58632;51.718;19.446;2023-02-12T00:00:47;100821.83;;;4.03;100.00
70971;BME280;58632;51.718;19.446;2023-02-12T00:03:33;100828.58;;;4.01;100.00
70971;BME280;58632;51.718;19.446;2023-02-12T00:06:00;100828.16;;;3.97;100.00
70971;BME280;58632;51.718;19.446;2023-02-12T00:08:26;100835.45;;;3.92;100.00
70971;BME280;58632;51.718;19.446;2023-02-12T00:10:52;100824.66;;;3.86;100.00
70971;BME280;58632;51.718;19.446;2023-02-12T00:13:17;100827.44;;;3.78;100.00
70971;BME280;58632;51.718;19.446;2023-02-12T00:15:43;100828.96;;;3.75;100.00
70971;BME280;58632;51.718;19.446;2023-02-12T00:18:08;100835.13;;;3.70;100.00
70971;BME280;58632;51.718;19.446;2023-02-12T00:20:35;100835.86;;;3.67;100.00
70971;BME280;58632;51.718;19.446;2023-02-12T00:23:01;100837.31;;;3.63;100.00
70971;BME280;58632;51.718;19.446;2023-02-12T00:25:26;100840.57;;;3.57;100.00
70971;BME280;58632;51.718;19.446;2023-02-12T00:27:52;100842.39;;;3.52;100.00
70971;BME280;58632;51.718;19.446;2023-02-12T00:30:18;100844.50;;;3.50;100.00
70971;BME280;58632;51.718;19.446;2023-02-12T00:32:44;100852.92;;;3.49;100.00
70971;BME280;58632;51.718;19.446;2023-02-12T00:35:10;100864.45;;;3.44;100.00
70971;BME280;58632;51.718;19.446;2023-02-12T00:37:35;100866.83;;;3.36;100.00
70971;BME280;58632;51.718;19.446;2023-02-12T00:40:01;100868.50;;;3.29;100.00
70971;BME280;58632;51.718;19.446;2023-02-12T00:42:26;100873.67;;;3.21;100.00
70971;BME280;58632;51.718;19.446;2023-02-12T00:44:52;100882.16;;;3.13;100.00
70971;BME280;58632;51.718;19.446;2023-02-12T00:47:17;100886.31;;;3.09;100.00
70971;BME280;58632;51.718;19.446;2023-02-12T00:49:43;100904.39;;;3.06;100.00
70971;BME280;58632;51.718;19.446;2023-02-12T00:52:09;100920.96;;;3.00;100.00
70971;BME280;58632;51.718;19.446;2023-02-12T00:54:34;100916.27;;;2.94;100.00
70971;BME280;58632;51.718;19.446;2023-02-12T00:57:00;100922.28;;;2.89;100.00
70971;BME280;58632;51.718;19.446;2023-02-12T00:59:26;100927.21;;;2.81;100.00
70971;BME280;58632;51.718;19.446;2023-02-12T01:01:52;100932.93;;;2.71;100.00
70971;BME280;58632;51.718;19.446;2023-02-12T01:04:18;100939.71;;;2.58;100.00
70971;BME280;58632;51.718;19.446;2023-02-12T01:06:44;100950.78;;;2.43;100.00
70971;BME280;58632;51.718;19.446;2023-02-12T01:09:10;100953.42;;;2.32;100.00
70971;BME280;58632;51.718;19.446;2023-02-12T01:11:35;100951.71;;;2.24;100.00
70971;BME280;58632;51.718;19.446;2023-02-12T01:14:01;100953.16;;;2.15;100.00
70971;BME280;58632;51.718;19.446;2023-02-12T01:16:27;100958.27;;;1.99;100.00
70971;BME280;58632;51.718;19.446;2023-02-12T01:18:53;100964.16;;;1.80;100.00
70971;BME280;58632;51.718;19.446;2023-02-12T01:21:24;100971.11;;;1.65;100.00
70971;BME280;58632;51.718;19.446;2023-02-12T01:23:50;100973.21;;;1.52;100.00
70971;BME280;58632;51.718;19.446;2023-02-12T01:26:16;100975.56;;;1.42;100.00
70971;BME280;58632;51.718;19.446;2023-02-12T01:28:43;100983.15;;;1.34;100.00
70971;BME280;58632;51.718;19.446;2023-02-12T01:31:14;100989.34;;;1.26;100.00
70971;BME280;58632;51.718;19.446;2023-02-12T01:33:40;100987.22;;;1.20;100.00
70971;BME280;58632;51.718;19.446;2023-02-12T01:36:06;100990.55;;;1.14;100.00
70971;BME280;58632;51.718;19.446;2023-02-12T01:38:32;100989.55;;;1.09;100.00
70971;BME280;58632;51.718;19.446;2023-02-12T01:41:01;100992.83;;;1.03;100.00
70971;BME280;58632;51.718;19.446;2023-02-12T01:43:26;101000.65;;;0.96;100.00
70971;BME280;58632;51.718;19.446;2023-02-12T01:45:52;101004.25;;;0.87;100.00
70971;BME280;58632;51.718;19.446;2023-02-12T01:48:19;101004.07;;;0.78;100.00
70971;BME280;58632;51.718;19.446;2023-02-12T01:50:45;101008.86;;;0.70;100.00
70971;BME280;58632;51.718;19.446;2023-02-12T01:53:12;101019.30;;;0.62;100.00
70971;BME280;58632;51.718;19.446;2023-02-12T01:55:44;101019.11;;;0.52;100.00
70971;BME280;58632;51.718;19.446;2023-02-12T01:58:10;101022.80;;;0.45;100.00
70971;BME280;58632;51.718;19.446;2023-02-12T02:00:36;101023.52;;;0.40;100.00
70971;BME280;58632;51.718;19.446;2023-02-12T02:03:01;101024.15;;;0.35;100.00
70971;BME280;58632;51.718;19.446;2023-02-12T02:05:30;101031.38;;;0.27;100.00
70971;BME280;58632;51.718;19.446;2023-02-12T02:07:58;101032.08;;;0.20;100.00
70971;BME280;58632;51.718;19.446;2023-02-12T02:10:24;101033.04;;;0.14;100.00
70971;BME280;58632;51.718;19.446;2023-02-12T02:12:49;101035.45;;;0.09;100.00
70971;BME280;58632;51.718;19.446;2023-02-12T02:15:34;101036.84;;;0.07;100.00
70971;BME280;58632;51.718;19.446;2023-02-12T02:18:01;101036.60;;;0.10;100.00
70971;BME280;58632;51.718;19.446;2023-02-12T02:34:07;101061.45;;;0.40;100.00
70971;BME280;58632;51.718;19.446;2023-02-12T02:36:48;101065.48;;;0.47;100.00
70971;BME280;58632;51.718;19.446;2023-02-12T02:44:22;101085.80;;;0.51;100.00
70971;BME280;58632;51.718;19.446;2023-02-12T02:46:49;101087.75;;;0.56;100.00
70971;BME280;58632;51.718;19.446;2023-02-12T02:49:17;101092.36;;;0.62;100.00
70971;BME280;58632;51.718;19.446;2023-02-12T02:51:46;101110.30;;;0.65;100.00
70971;BME280;58632;51.718;19.446;2023-02-12T02:57:03;101115.45;;;0.64;100.00
70971;BME280;58632;51.718;19.446;2023-02-12T02:59:32;101120.80;;;0.63;100.00
70971;BME280;58632;51.718;19.446;2023-02-12T03:02:11;101131.72;;;0.63;100.00
70971;BME280;58632;51.718;19.446;2023-02-12T03:04:40;101135.43;;;0.60;100.00
70971;BME280;58632;51.718;19.446;2023-02-12T03:07:11;101140.00;;;0.56;100.00
70971;BME280;58632;51.718;19.446;2023-02-12T03:09:39;101144.25;;;0.53;100.00
70971;BME280;58632;51.718;19.446;2023-02-12T03:12:12;101146.75;;;0.52;100.00
70971;BME280;58632;51.718;19.446;2023-02-12T03:17:31;101153.45;;;0.50;100.00
70971;BME280;58632;51.718;19.446;2023-02-12T03:20:01;101156.83;;;0.48;100.00
70971;BME280;58632;51.718;19.446;2023-02-12T03:22:35;101159.13;;;0.46;100.00
70971;BME280;58632;51.718;19.446;2023-02-12T03:25:21;101159.36;;;0.43;100.00
70971;BME280;58632;51.718;19.446;2023-02-12T03:27:51;101163.80;;;0.43;100.00
70971;BME280;58632;51.718;19.446;2023-02-12T03:30:21;101166.61;;;0.44;100.00
70971;BME280;58632;51.718;19.446;2023-02-12T03:37:54;101171.21;;;0.34;100.00
70971;BME280;58632;51.718;19.446;2023-02-12T03:45:49;101191.02;;;0.36;100.00
70971;BME280;58632;51.718;19.446;2023-02-12T03:48:19;101199.01;;;0.38;100.00
70971;BME280;58632;51.718;19.446;2023-02-12T03:50:49;101200.08;;;0.38;100.00
70971;BME280;58632;51.718;19.446;2023-02-12T03:53:16;101204.02;;;0.38;100.00
70971;BME280;58632;51.718;19.446;2023-02-12T03:55:42;101209.23;;;0.38;100.00
70971;BME280;58632;51.718;19.446;2023-02-12T03:58:10;101213.02;;;0.37;100.00
70971;BME280;58632;51.718;19.446;2023-02-12T04:00:38;101212.21;;;0.37;100.00
70971;BME280;58632;51.718;19.446;2023-02-12T04:03:04;101223.33;;;0.37;100.00
70971;BME280;58632;51.718;19.446;2023-02-12T04:05:30;101221.77;;;0.41;100.00
70971;BME280;58632;51.718;19.446;2023-02-12T04:07:56;101218.96;;;0.46;100.00
70971;BME280;58632;51.718;19.446;2023-02-12T04:10:33;101223.38;;;0.49;100.00
70971;BME280;58632;51.718;19.446;2023-02-12T04:13:10;101228.77;;;0.47;100.00
70971;BME280;58632;51.718;19.446;2023-02-12T04:18:32;101227.17;;;0.45;100.00
70971;BME280;58632;51.718;19.446;2023-02-12T04:23:54;101235.23;;;0.42;100.00
70971;BME280;58632;51.718;19.446;2023-02-12T04:26:28;101239.85;;;0.41;100.00
70971;BME280;58632;51.718;19.446;2023-02-12T04:31:24;101254.25;;;0.45;100.00
70971;BME280;58632;51.718;19.446;2023-02-12T04:33:59;101256.91;;;0.42;100.00
70971;BME280;58632;51.718;19.446;2023-02-12T04:36:31;101255.74;;;0.41;100.00
70971;BME280;58632;51.718;19.446;2023-02-12T04:38:59;101264.25;;;0.40;100.00
70971;BME280;58632;51.718;19.446;2023-02-12T04:41:26;101275.08;;;0.39;100.00
70971;BME280;58632;51.718;19.446;2023-02-12T04:43:52;101274.42;;;0.36;100.00
70971;BME280;58632;51.718;19.446;2023-02-12T04:46:17;101273.83;;;0.36;100.00
70971;BME280;58632;51.718;19.446;2023-02-12T04:48:51;101276.27;;;0.38;100.00
70971;BME280;58632;51.718;19.446;2023-02-12T04:51:17;101277.52;;;0.38;100.00
70971;BME280;58632;51.718;19.446;2023-02-12T04:53:43;101287.08;;;0.34;100.00
70971;BME280;58632;51.718;19.446;2023-02-12T04:56:10;101293.24;;;0.31;100.00
70971;BME280;58632;51.718;19.446;2023-02-12T04:58:35;101297.93;;;0.30;100.00
70971;BME280;58632;51.718;19.446;2023-02-12T05:01:02;101301.83;;;0.30;100.00
70971;BME280;58632;51.718;19.446;2023-02-12T05:03:27;101296.52;;;0.28;100.00
70971;BME280;58632;51.718;19.446;2023-02-12T05:05:53;101287.66;;;0.27;100.00
70971;BME280;58632;51.718;19.446;2023-02-12T05:08:18;101288.84;;;0.27;100.00
70971;BME280;58632;51.718;19.446;2023-02-12T05:10:44;101292.08;;;0.24;100.00
70971;BME280;58632;51.718;19.446;2023-02-12T05:13:10;101297.08;;;0.20;100.00
70971;BME280;58632;51.718;19.446;2023-02-12T05:15:37;101300.05;;;0.17;100.00
70971;BME280;58632;51.718;19.446;2023-02-12T05:18:02;101299.59;;;0.14;100.00
70971;BME280;58632;51.718;19.446;2023-02-12T05:20:28;101302.58;;;0.12;100.00
70971;BME280;58632;51.718;19.446;2023-02-12T05:22:53;101308.92;;;0.13;100.00
70971;BME280;58632;51.718;19.446;2023-02-12T05:25:19;101313.86;;;0.13;100.00
70971;BME280;58632;51.718;19.446;2023-02-12T05:27:44;101317.75;;;0.13;100.00
70971;BME280;58632;51.718;19.446;2023-02-12T05:30:11;101321.90;;;0.11;100.00
70971;BME280;58632;51.718;19.446;2023-02-12T05:32:36;101327.25;;;0.10;100.00
70971;BME280;58632;51.718;19.446;2023-02-12T05:35:02;101326.73;;;0.06;100.00
70971;BME280;58632;51.718;19.446;2023-02-12T05:37:28;101326.54;;;0.06;100.00
70971;BME280;58632;51.718;19.446;2023-02-12T05:39:55;101332.63;;;0.06;100.00
70971;BME280;58632;51.718;19.446;2023-02-12T05:42:21;101333.01;;;0.04;100.00
70971;BME280;58632;51.718;19.446;2023-02-12T05:44:46;101338.28;;;0.03;100.00
70971;BME280;58632;51.718;19.446;2023-02-12T05:47:12;101336.98;;;0.02;100.00
70971;BME280;58632;51.718;19.446;2023-02-12T05:49:37;101341.50;;;0.02;100.00
70971;BME280;58632;51.718;19.446;2023-02-12T05:52:03;101345.91;;;0.01;100.00
70971;BME280;58632;51.718;19.446;2023-02-12T05:54:29;101348.40;;;0.00;100.00
70971;BME280;58632;51.718;19.446;2023-02-12T05:56:54;101352.52;;;0.03;100.00
70971;BME280;58632;51.718;19.446;2023-02-12T05:59:20;101357.52;;;0.06;100.00
70971;BME280;58632;51.718;19.446;2023-02-12T06:01:47;101359.27;;;0.07;100.00
70971;BME280;58632;51.718;19.446;2023-02-12T06:04:19;101358.98;;;0.09;100.00
70971;BME280;58632;51.718;19.446;2023-02-12T06:06:45;101360.79;;;0.09;100.00
70971;BME280;58632;51.718;19.446;2023-02-12T06:09:11;101365.09;;;0.09;100.00
70971;BME280;58632;51.718;19.446;2023-02-12T06:11:38;101372.96;;;0.11;100.00
70971;BME280;58632;51.718;19.446;2023-02-12T06:14:04;101382.30;;;0.09;100.00
70971;BME280;58632;51.718;19.446;2023-02-12T06:16:30;101387.65;;;0.10;100.00
70971;BME280;58632;51.718;19.446;2023-02-12T06:18:55;101395.15;;;0.10;100.00
70971;BME280;58632;51.718;19.446;2023-02-12T06:21:21;101400.00;;;0.10;100.00
70971;BME280;58632;51.718;19.446;2023-02-12T06:23:48;101406.05;;;0.10;100.00
70971;BME280;58632;51.718;19.446;2023-02-12T06:26:13;101405.41;;;0.12;100.00
70971;BME280;58632;51.718;19.446;2023-02-12T06:28:39;101409.66;;;0.17;100.00
70971;BME280;58632;51.718;19.446;2023-02-12T06:31:04;101414.71;;;0.19;100.00
70971;BME280;58632;51.718;19.446;2023-02-12T06:33:30;101416.65;;;0.21;100.00
70971;BME280;58632;51.718;19.446;2023-02-12T06:35:57;101417.09;;;0.24;100.00
70971;BME280;58632;51.718;19.446;2023-02-12T06:38:22;101415.71;;;0.27;100.00
70971;BME280;58632;51.718;19.446;2023-02-12T06:40:48;101417.11;;;0.30;100.00
70971;BME280;58632;51.718;19.446;2023-02-12T06:43:13;101414.89;;;0.35;100.00
70971;BME280;58632;51.718;19.446;2023-02-12T06:45:39;101419.89;;;0.39;100.00
70971;BME280;58632;51.718;19.446;2023-02-12T06:48:05;101427.34;;;0.40;100.00
70971;BME280;58632;51.718;19.446;2023-02-12T06:50:30;101428.29;;;0.43;100.00
70971;BME280;58632;51.718;19.446;2023-02-12T06:52:57;101433.27;;;0.50;100.00
70971;BME280;58632;51.718;19.446;2023-02-12T06:55:22;101446.92;;;0.57;100.00
70971;BME280;58632;51.718;19.446;2023-02-12T06:57:48;101455.98;;;0.59;100.00
70971;BME280;58632;51.718;19.446;2023-02-12T07:00:14;101460.02;;;0.60;100.00
70971;BME280;58632;51.718;19.446;2023-02-12T07:02:39;101467.18;;;0.62;100.00
70971;BME280;58632;51.718;19.446;2023-02-12T07:05:05;101470.09;;;0.63;100.00
70971;BME280;58632;51.718;19.446;2023-02-12T07:07:31;101475.95;;;0.66;100.00
70971;BME280;58632;51.718;19.446;2023-02-12T07:09:56;101478.93;;;0.66;100.00
70971;BME280;58632;51.718;19.446;2023-02-12T07:12:22;101477.73;;;0.69;100.00
70971;BME280;58632;51.718;19.446;2023-02-12T07:14:48;101478.39;;;0.75;100.00
70971;BME280;58632;51.718;19.446;2023-02-12T07:17:13;101481.06;;;0.82;100.00
70971;BME280;58632;51.718;19.446;2023-02-12T07:19:39;101482.92;;;0.92;100.00
70971;BME280;58632;51.718;19.446;2023-02-12T07:22:04;101483.42;;;1.03;100.00
70971;BME280;58632;51.718;19.446;2023-02-12T07:24:30;101478.53;;;1.10;100.00
70971;BME280;58632;51.718;19.446;2023-02-12T07:26:56;101477.55;;;1.14;100.00
70971;BME280;58632;51.718;19.446;2023-02-12T07:29:21;101477.49;;;1.22;100.00
70971;BME280;58632;51.718;19.446;2023-02-12T07:31:47;101479.48;;;1.29;100.00
70971;BME280;58632;51.718;19.446;2023-02-12T07:34:13;101480.11;;;1.33;100.00
70971;BME280;58632;51.718;19.446;2023-02-12T07:36:38;101476.35;;;1.37;100.00
70971;BME280;58632;51.718;19.446;2023-02-12T07:39:04;101482.28;;;1.43;100.00
70971;BME280;58632;51.718;19.446;2023-02-12T07:41:33;101484.81;;;1.53;100.00
70971;BME280;58632;51.718;19.446;2023-02-12T07:44:01;101494.38;;;1.62;100.00
70971;BME280;58632;51.718;19.446;2023-02-12T07:46:34;101498.66;;;1.66;100.00
70971;BME280;58632;51.718;19.446;2023-02-12T07:49:01;101501.27;;;1.63;100.00
70971;BME280;58632;51.718;19.446;2023-02-12T07:51:28;101505.05;;;1.69;100.00
70971;BME280;58632;51.718;19.446;2023-02-12T07:53:54;101508.05;;;1.77;100.00
70971;BME280;58632;51.718;19.446;2023-02-12T07:56:21;101513.89;;;1.84;100.00
70971;BME280;58632;51.718;19.446;2023-02-12T07:58:47;101515.70;;;1.91;100.00
70971;BME280;58632;51.718;19.446;2023-02-12T08:01:18;101519.21;;;1.97;100.00
70971;BME280;58632;51.718;19.446;2023-02-12T08:03:44;101517.10;;;1.97;100.00
70971;BME280;58632;51.718;19.446;2023-02-12T08:06:10;101516.13;;;2.02;100.00
70971;BME280;58632;51.718;19.446;2023-02-12T08:08:36;101516.91;;;2.08;100.00
70971;BME280;58632;51.718;19.446;2023-02-12T08:11:04;101517.58;;;2.16;100.00
70971;BME280;58632;51.718;19.446;2023-02-12T08:13:30;101521.47;;;2.21;100.00
70971;BME280;58632;51.718;19.446;2023-02-12T08:15:59;101521.29;;;2.24;100.00
70971;BME280;58632;51.718;19.446;2023-02-12T08:18:24;101517.83;;;2.31;100.00
70971;BME280;58632;51.718;19.446;2023-02-12T08:20:50;101517.92;;;2.38;100.00
70971;BME280;58632;51.718;19.446;2023-02-12T08:23:15;101524.22;;;2.43;100.00
70971;BME280;58632;51.718;19.446;2023-02-12T08:25:41;101525.13;;;2.51;100.00
70971;BME280;58632;51.718;19.446;2023-02-12T08:28:07;101516.13;;;2.64;100.00
70971;BME280;58632;51.718;19.446;2023-02-12T08:30:32;101520.38;;;2.76;100.00
70971;BME280;58632;51.718;19.446;2023-02-12T08:32:58;101518.79;;;2.86;100.00
70971;BME280;58632;51.718;19.446;2023-02-12T08:35:24;101515.43;;;2.91;100.00
70971;BME280;58632;51.718;19.446;2023-02-12T08:37:49;101512.05;;;2.98;100.00
70971;BME280;58632;51.718;19.446;2023-02-12T08:40:16;101516.27;;;3.08;100.00
70971;BME280;58632;51.718;19.446;2023-02-12T08:42:42;101512.77;;;3.19;100.00
70971;BME280;58632;51.718;19.446;2023-02-12T08:45:07;101515.36;;;3.23;100.00
70971;BME280;58632;51.718;19.446;2023-02-12T08:47:33;101519.20;;;3.44;100.00
70971;BME280;58632;51.718;19.446;2023-02-12T08:49:59;101518.99;;;3.68;100.00
70971;BME280;58632;51.718;19.446;2023-02-12T08:52:24;101517.99;;;3.86;100.00
70971;BME280;58632;51.718;19.446;2023-02-12T08:54:50;101520.77;;;4.00;100.00
70971;BME280;58632;51.718;19.446;2023-02-12T08:57:15;101525.54;;;4.26;100.00
70971;BME280;58632;51.718;19.446;2023-02-12T08:59:41;101532.14;;;4.50;100.00
70971;BME280;58632;51.718;19.446;2023-02-12T09:02:08;101540.13;;;4.67;100.00
70971;BME280;58632;51.718;19.446;2023-02-12T09:04:34;101539.08;;;4.87;100.00
70971;BME280;58632;51.718;19.446;2023-02-12T09:07:00;101536.89;;;4.99;100.00
70971;BME280;58632;51.718;19.446;2023-02-12T09:09:25;101536.59;;;4.93;100.00
70971;BME280;58632;51.718;19.446;2023-02-12T09:11:51;101538.13;;;4.70;100.00
70971;BME280;58632;51.718;19.446;2023-02-12T09:14:16;101536.17;;;4.46;100.00
70971;BME280;58632;51.718;19.446;2023-02-12T09:16:43;101535.41;;;4.24;100.00
70971;BME280;58632;51.718;19.446;2023-02-12T09:19:10;101544.84;;;3.92;100.00
70971;BME280;58632;51.718;19.446;2023-02-12T09:21:36;101550.58;;;3.64;100.00
70971;BME280;58632;51.718;19.446;2023-02-12T09:24:01;101550.98;;;3.43;100.00
70971;BME280;58632;51.718;19.446;2023-02-12T09:26:27;101550.00;;;3.30;100.00
70971;BME280;58632;51.718;19.446;2023-02-12T09:28:53;101550.90;;;3.32;100.00
70971;BME280;58632;51.718;19.446;2023-02-12T09:31:20;101555.88;;;3.38;100.00
70971;BME280;58632;51.718;19.446;2023-02-12T09:33:47;101556.40;;;3.44;100.00
70971;BME280;58632;51.718;19.446;2023-02-12T09:36:13;101562.66;;;3.47;100.00
70971;BME280;58632;51.718;19.446;2023-02-12T09:38:39;101568.55;;;3.61;100.00
70971;BME280;58632;51.718;19.446;2023-02-12T09:41:09;101576.38;;;3.86;100.00
70971;BME280;58632;51.718;19.446;2023-02-12T09:46:19;101582.44;;;4.38;100.00
70971;BME280;58632;51.718;19.446;2023-02-12T09:48:53;101582.31;;;4.54;100.00
70971;BME280;58632;51.718;19.446;2023-02-12T09:51:21;101581.31;;;4.56;100.00
70971;BME280;58632;51.718;19.446;2023-02-12T09:53:47;101579.83;;;4.55;100.00
70971;BME280;58632;51.718;19.446;2023-02-12T09:56:16;101573.67;;;4.59;100.00
70971;BME280;58632;51.718;19.446;2023-02-12T09:58:46;101568.90;;;4.70;100.00
70971;BME280;58632;51.718;19.446;2023-02-12T10:01:15;101574.54;;;4.84;100.00
70971;BME280;58632;51.718;19.446;2023-02-12T10:03:41;101573.46;;;4.90;100.00
70971;BME280;58632;51.718;19.446;2023-02-12T10:06:10;101573.71;;;4.90;100.00
70971;BME280;58632;51.718;19.446;2023-02-12T10:11:31;101572.62;;;4.94;100.00
70971;BME280;58632;51.718;19.446;2023-02-12T10:16:35;101570.70;;;4.99;100.00
70971;BME280;58632;51.718;19.446;2023-02-12T10:19:16;101572.08;;;5.06;100.00
70971;BME280;58632;51.718;19.446;2023-02-12T10:26:48;101568.08;;;5.18;100.00
70971;BME280;58632;51.718;19.446;2023-02-12T10:29:24;101566.73;;;5.18;100.00
70971;BME280;58632;51.718;19.446;2023-02-12T10:31:52;101560.08;;;5.17;100.00
70971;BME280;58632;51.718;19.446;2023-02-12T10:34:26;101559.02;;;5.18;100.00
70971;BME280;58632;51.718;19.446;2023-02-12T10:37:16;101567.20;;;5.06;100.00
70971;BME280;58632;51.718;19.446;2023-02-12T10:39:47;101565.27;;;5.07;100.00
70971;BME280;58632;51.718;19.446;2023-02-12T10:44:40;101562.74;;;5.15;100.00
70971;BME280;58632;51.718;19.446;2023-02-12T10:47:13;101566.66;;;5.17;100.00
70971;BME280;58632;51.718;19.446;2023-02-12T10:49:42;101558.09;;;5.18;100.00
70971;BME280;58632;51.718;19.446;2023-02-12T10:52:20;101562.63;;;5.14;100.00
70971;BME280;58632;51.718;19.446;2023-02-12T10:54:51;101564.98;;;5.23;100.00
70971;BME280;58632;51.718;19.446;2023-02-12T10:57:21;101560.27;;;5.29;100.00
70971;BME280;58632;51.718;19.446;2023-02-12T10:59:48;101561.19;;;5.36;100.00
70971;BME280;58632;51.718;19.446;2023-02-12T11:02:21;101558.14;;;5.44;100.00
70971;BME280;58632;51.718;19.446;2023-02-12T11:04:47;101560.66;;;5.48;100.00
70971;BME280;58632;51.718;19.446;2023-02-12T11:07:13;101557.73;;;5.58;100.00
70971;BME280;58632;51.718;19.446;2023-02-12T11:09:40;101560.63;;;5.59;100.00
70971;BME280;58632;51.718;19.446;2023-02-12T11:14:54;101553.50;;;5.65;100.00
70971;BME280;58632;51.718;19.446;2023-02-12T11:17:33;101555.60;;;5.63;100.00
70971;BME280;58632;51.718;19.446;2023-02-12T11:20:21;101553.41;;;5.66;100.00
70971;BME280;58632;51.718;19.446;2023-02-12T11:23:01;101551.02;;;5.66;100.00
70971;BME280;58632;51.718;19.446;2023-02-12T11:25:28;101551.73;;;5.63;100.00
70971;BME280;58632;51.718;19.446;2023-02-12T11:28:01;101551.11;;;5.56;100.00
70971;BME280;58632;51.718;19.446;2023-02-12T11:30:26;101551.65;;;5.49;100.00
70971;BME280;58632;51.718;19.446;2023-02-12T11:32:52;101553.05;;;5.43;100.00
70971;BME280;58632;51.718;19.446;2023-02-12T11:35:21;101555.31;;;5.44;100.00
70971;BME280;58632;51.718;19.446;2023-02-12T11:37:53;101548.20;;;5.43;100.00
70971;BME280;58632;51.718;19.446;2023-02-12T11:40:26;101548.83;;;5.43;100.00
70971;BME280;58632;51.718;19.446;2023-02-12T11:42:53;101545.77;;;5.30;99.40
70971;BME280;58632;51.718;19.446;2023-02-12T11:45:21;101545.08;;;5.16;100.00
70971;BME280;58632;51.718;19.446;2023-02-12T11:47:48;101549.77;;;5.17;100.00
70971;BME280;58632;51.718;19.446;2023-02-12T11:50:17;101555.00;;;5.12;100.00
70971;BME280;58632;51.718;19.446;2023-02-12T11:52:48;101558.81;;;5.13;100.00
70971;BME280;58632;51.718;19.446;2023-02-12T11:55:20;101554.91;;;5.10;100.00
70971;BME280;58632;51.718;19.446;2023-02-12T11:57:47;101553.27;;;5.04;100.00
70971;BME280;58632;51.718;19.446;2023-02-12T12:00:18;101551.20;;;5.04;100.00
70971;BME280;58632;51.718;19.446;2023-02-12T12:05:28;101557.02;;;4.99;100.00
70971;BME280;58632;51.718;19.446;2023-02-12T12:07:56;101555.48;;;4.92;100.00
70971;BME280;58632;51.718;19.446;2023-02-12T12:12:50;101556.61;;;4.95;100.00
70971;BME280;58632;51.718;19.446;2023-02-12T12:15:27;101552.08;;;4.96;100.00
70971;BME280;58632;51.718;19.446;2023-02-12T12:23:56;101549.64;;;5.01;100.00
70971;BME280;58632;51.718;19.446;2023-02-12T12:26:24;101548.11;;;5.02;100.00
70971;BME280;58632;51.718;19.446;2023-02-12T12:28:53;101544.54;;;4.91;100.00
70971;BME280;58632;51.718;19.446;2023-02-12T12:36:29;101550.70;;;4.74;100.00
70971;BME280;58632;51.718;19.446;2023-02-12T12:44:04;101549.05;;;4.60;100.00
70971;BME280;58632;51.718;19.446;2023-02-12T12:51:29;101543.91;;;4.60;100.00
70971;BME280;58632;51.718;19.446;2023-02-12T13:10:02;101536.03;;;4.54;100.00
70971;BME280;58632;51.718;19.446;2023-02-12T13:17:39;101536.33;;;4.53;100.00
70971;BME280;58632;51.718;19.446;2023-02-12T13:22:46;101528.85;;;4.56;100.00
70971;BME280;58632;51.718;19.446;2023-02-12T13:28:00;101529.33;;;4.61;100.00
70971;BME280;58632;51.718;19.446;2023-02-12T13:30:31;101525.37;;;4.58;100.00
70971;BME280;58632;51.718;19.446;2023-02-12T13:35:30;101523.23;;;4.50;100.00
70971;BME280;58632;51.718;19.446;2023-02-12T13:37:57;101526.77;;;4.42;100.00
70971;BME280;58632;51.718;19.446;2023-02-12T13:40:24;101527.83;;;4.41;100.00
70971;BME280;58632;51.718;19.446;2023-02-12T13:45:37;101525.76;;;4.43;100.00
70971;BME280;58632;51.718;19.446;2023-02-12T13:53:29;101523.50;;;4.39;100.00
70971;BME280;58632;51.718;19.446;2023-02-12T14:01:03;101522.43;;;4.42;100.00
70971;BME280;58632;51.718;19.446;2023-02-12T14:03:29;101521.36;;;4.41;100.00
70971;BME280;58632;51.718;19.446;2023-02-12T14:06:08;101518.96;;;4.41;100.00
70971;BME280;58632;51.718;19.446;2023-02-12T14:08:36;101521.23;;;4.44;100.00
70971;BME280;58632;51.718;19.446;2023-02-12T14:11:06;101525.44;;;4.49;100.00
70971;BME280;58632;51.718;19.446;2023-02-12T14:13:33;101524.65;;;4.45;100.00
70971;BME280;58632;51.718;19.446;2023-02-12T14:16:17;101519.32;;;4.39;100.00
70971;BME280;58632;51.718;19.446;2023-02-12T14:18:43;101520.41;;;4.39;100.00
70971;BME280;58632;51.718;19.446;2023-02-12T14:23:38;101517.46;;;4.36;100.00
70971;BME280;58632;51.718;19.446;2023-02-12T14:26:04;101515.95;;;4.34;100.00
70971;BME280;58632;51.718;19.446;2023-02-12T14:33:41;101526.92;;;4.18;100.00
70971;BME280;58632;51.718;19.446;2023-02-12T14:36:14;101526.23;;;4.13;100.00
70971;BME280;58632;51.718;19.446;2023-02-12T14:44:59;101515.41;;;3.98;100.00
70971;BME280;58632;51.718;19.446;2023-02-12T14:47:01;101516.89;;;3.92;100.00
70971;BME280;58632;51.718;19.446;2023-02-12T14:49:32;101519.20;;;3.81;100.00
70971;BME280;58632;51.718;19.446;2023-02-12T14:52:02;101520.88;;;3.73;100.00
70971;BME280;58632;51.718;19.446;2023-02-12T14:57:00;101523.98;;;3.56;100.00
70971;BME280;58632;51.718;19.446;2023-02-12T14:59:27;101522.55;;;3.44;100.00
70971;BME280;58632;51.718;19.446;2023-02-12T15:01:57;101523.55;;;3.33;100.00
70971;BME280;58632;51.718;19.446;2023-02-12T15:04:24;101522.95;;;3.26;100.00
70971;BME280;58632;51.718;19.446;2023-02-12T15:06:52;101526.91;;;3.17;100.00
70971;BME280;58632;51.718;19.446;2023-02-12T15:09:24;101533.42;;;3.10;100.00